This is the latest recevied weather packets stored in our database for station/object K9JWM. If no packets are shown the sender has not sent any weather packets the latest 10 day(s).
| Time | Temp. | Humidity | Pressure | Rain* | Wind** | Luminosity | Snow |
|---|---|---|---|---|---|---|---|
| 1777915030 | 12.78° C | 51% | 993.8 hPa | 0 mm | - | - | - |
| 1777914131 | 12.78° C | 50% | 993.8 hPa | 0 mm | - | - | - |
| 1777913231 | 12.22° C | 51% | 993.8 hPa | 0 mm | - | - | - |
| 1777912330 | 11.67° C | 54% | 993.7 hPa | 0 mm | - | - | - |
| 1777911430 | 12.78° C | 54% | 993.5 hPa | 0 mm | - | - | - |
| 1777910530 | 12.22° C | 57% | 993.3 hPa | 0 mm | - | - | - |
| 1777909631 | 12.22° C | 59% | 992.9 hPa | 0 mm | - | - | - |
| 1777908729 | 11.67° C | 60% | 993 hPa | 0 mm | - | - | - |
| 1777907831 | 11.67° C | 58% | 992.7 hPa | 0 mm | - | - | - |
| 1777906931 | 12.22° C | 58% | 992.6 hPa | 0 mm | - | - | - |
| 1777906031 | 12.22° C | 60% | 992.5 hPa | 0 mm | - | - | - |
| 1777905131 | 12.78° C | 60% | 992.4 hPa | 0 mm | - | - | - |
| 1777904230 | 12.78° C | 63% | 992.1 hPa | 0 mm | - | - | - |
| 1777903330 | 13.33° C | 61% | 992 hPa | 0 mm | - | - | - |
| 1777902431 | 13.33° C | 61% | 991.5 hPa | 0 mm | - | - | - |
| 1777901530 | 13.33° C | 59% | 991.9 hPa | 0 mm | - | - | - |
| 1777900631 | 13.89° C | 52% | 991.6 hPa | 0 mm | - | - | - |
| 1777899731 | 15° C | 44% | 991.1 hPa | 0 mm | - | - | - |
| 1777898830 | 14.44° C | 45% | 991 hPa | 0 mm | - | - | - |
| 1777897929 | 14.44° C | 46% | 990.8 hPa | 0 mm | - | - | - |
| 1777897030 | 14.44° C | 47% | 990.7 hPa | 0 mm | - | - | - |
| 1777896130 | 14.44° C | 45% | 990.6 hPa | 0 mm | - | - | - |
| 1777895231 | 14.44° C | 42% | 990.8 hPa | 0 mm | - | - | - |
| 1777894331 | 15° C | 40% | 990.9 hPa | 0 mm | - | - | - |
| 1777893430 | 13.89° C | 41% | 990.9 hPa | 0 mm | - | - | - |
* Rain latest hour (hover to see other rain measurements)
** Current wind speed in m/s (hover to see current wind gust speed)